Latest Weather Observations for Richmond

IDN60901

Issued at 11:35 am EDT Wednesday 26 November 2014 (issued every 10 minutes, with the page automatically refreshed every 10 minutes)

About weather observations | Map of Sydney area stations | Latest observations for Sydney area | Other Formats
Station Details ID: 067105 Name: RICHMOND RAAF Lat: -33.60 Lon: 150.78 Height: 19.0 m
Data from the previous 72 hours. | See also: Recent months at Richmond
Date/Time
EDT
Tmp

°C
App
Tmp
°C
Dew
Point
°C
Rel
Hum
%
Delta-T

°C
Wind Press
QNH
hPa
Press
MSL
hPa
Rain
since
9 am
mm
Dir
 
Spd
km/h
Gust
km/h
Spd
kts
Gust
kts
26/11:30am 21.4 21.0 14.1 63 4.2 NNW 9 17 5 9 1018.9 1018.9 0.0
26/11:00am 21.0 20.3 14.4 66 3.8 NNW 11 15 6 8 1019.1 1019.1 0.0
26/10:30am 20.4 20.5 13.8 66 3.8 NNW 6 9 3 5 1019.3 1019.3 0.0
26/10:00am 20.5 21.0 13.9 66 3.8 N 4 11 2 6 1019.4 1019.4 0.0
26/09:30am 20.2 20.6 13.6 66 3.8 NNE 4 11 2 6 1019.6 1019.6 0.0
26/09:00am 20.3 20.1 13.7 66 3.8 NNE 7 11 4 6 1019.6 1019.6 0.2
26/08:30am 20.1 19.2 13.6 66 3.7 NE 11 13 6 7 1019.8 1019.8 0.2
26/08:00am 19.9 19.5 14.0 69 3.4 NNE 9 15 5 8 1019.5 1019.5 0.2
26/07:30am 19.6 18.7 13.8 69 3.3 NNE 11 15 6 8 1019.5 1019.5 0.2
26/07:00am 19.3 19.3 14.3 73 2.9 NNE 7 11 4 6 1019.3 1019.3 0.2
26/06:30am 18.9 18.7 14.8 77 2.4 NNE 9 13 5 7 1019.3 1019.3 0.2
26/06:00am 18.6 20.1 14.7 78 2.3 CALM 0 0 0 0 1019.2 1019.2 0.2
26/05:30am 18.7 20.3 15.0 79 2.2 CALM 0 0 0 0 1019.0 1019.0 0.2
26/05:00am 18.6 19.4 14.9 79 2.2 E 4 6 2 3 1018.8 1018.8 0.2
26/04:30am 18.6 19.0 14.7 78 2.3 ENE 6 9 3 5 1018.9 1018.9 0.2
26/04:00am 18.8 18.9 14.5 76 2.5 E 7 9 4 5 1018.9 1018.9 0.2
26/03:30am 18.8 18.9 14.5 76 2.5 ESE 7 11 4 6 1018.9 1018.9 0.2
26/03:00am 19.0 18.3 14.3 74 2.7 ESE 11 13 6 7 1019.0 1019.0 0.2
26/02:30am 19.0 19.1 14.5 75 2.6 SE 7 9 4 5 1019.3 1019.3 0.2
26/02:00am 19.1 19.2 14.4 74 2.7 SE 7 9 4 5 1019.4 1019.4 0.2
26/01:30am 19.3 19.1 14.6 74 2.7 SE 9 11 5 6 1019.8 1019.8 0.2
26/01:00am 19.5 19.5 14.3 72 3.0 SSE 7 9 4 5 1020.2 1020.2 0.2
26/12:30am 19.5 18.8 14.3 72 3.0 SE 11 13 6 7 1020.5 1020.5 0.2
26/12:00am 19.7 19.4 14.3 71 3.1 ESE 9 13 5 7 1020.5 1020.5 0.2
 
Date/Time
EDT
Tmp

°C
App
Tmp
°C
Dew
Point
°C
Rel
Hum
%
Delta-T

°C
Wind Press
QNH
hPa
Press
MSL
hPa
Rain
since
9 am
mm
Dir
 
Spd
km/h
Gust
km/h
Spd
kts
Gust
kts
25/11:30pm 19.9 19.2 14.3 70 3.2 SE 11 13 6 7 1020.4 1020.4 0.2
25/11:00pm 19.8 18.7 14.2 70 3.2 ESE 13 17 7 9 1020.4 1020.4 0.2
25/10:30pm 19.8 19.0 14.0 69 3.3 E 11 15 6 8 1020.5 1020.5 0.2
25/10:00pm 19.9 18.6 13.8 68 3.5 E 13 19 7 10 1020.2 1020.2 0.2
25/09:30pm 20.0 18.4 13.9 68 3.5 ESE 15 20 8 11 1019.8 1019.8 0.2
25/09:00pm 20.2 17.8 13.9 67 3.6 E 19 22 10 12 1019.6 1019.6 0.2
25/08:30pm 20.2 19.0 13.9 67 3.6 E 13 17 7 9 1019.2 1019.2 0.2
25/08:00pm 19.9 17.9 13.8 68 3.5 E 17 24 9 13 1018.6 1018.6 0.2
25/07:30pm 20.5 18.1 13.9 66 3.8 E 19 24 10 13 1018.0 1018.0 0.2
25/07:00pm 21.5 19.1 13.9 62 4.4 E 19 24 10 13 1017.3 1017.3 0.2
25/06:30pm 22.8 20.4 13.8 57 5.2 E 19 24 10 13 1016.4 1016.3 0.2
25/06:00pm 23.4 20.7 13.6 54 5.7 E 20 24 11 13 1015.8 1015.7 0.2
25/05:30pm 24.2 21.3 14.0 53 6.0 ENE 22 30 12 16 1015.3 1015.2 0.2
25/05:00pm 25.4 22.5 12.9 45 7.3 E 20 28 11 15 1014.8 1014.7 0.2
25/04:30pm 25.2 21.9 12.8 46 7.2 E 22 32 12 17 1014.6 1014.5 0.2
25/04:00pm 26.7 23.1 10.4 36 9.1 E 20 28 11 15 1014.5 1014.4 0.2
25/03:30pm 26.0 22.1 12.1 42 8.0 E 24 30 13 16 1014.5 1014.4 0.2
25/03:00pm 26.8 22.5 12.1 40 8.5 ESE 26 35 14 19 1014.6 1014.5 0.2
25/02:51pm 27.2 21.9 10.0 34 9.6 ESE 28 33 15 18 1014.7 1014.6 0.2
25/02:30pm 27.3 23.9 1.7 19 12.4 ESE 9 15 5 8 1014.8 1014.7 0.2
25/02:00pm 27.3 24.5 3.1 21 12.0 E 7 19 4 10 1015.0 1014.9 0.2
25/01:30pm 26.5 23.3 3.1 22 11.5 SE 9 17 5 9 1015.2 1015.1 0.2
25/01:00pm 26.3 21.3 3.5 23 11.3 SE 19 22 10 12 1015.3 1015.2 0.0
25/12:30pm 26.3 22.6 4.7 25 10.9 S 13 22 7 12 1015.3 1015.2 0.0
25/12:00pm 25.9 22.2 6.5 29 10.1 S 15 20 8 11 1015.2 1015.1 0.0
25/11:30am 25.6 21.8 7.7 32 9.5 S 17 24 9 13 1015.1 1015.0 0.0
25/11:00am 25.3 21.1 8.3 34 9.1 S 20 33 11 18 1015.0 1014.9 0.0
25/10:30am 25.2 21.7 10.3 39 8.3 SSW 19 32 10 17 1014.7 1014.6 0.0
25/10:00am 25.0 24.2 16.2 58 5.4 S 15 20 8 11 1014.2 1014.1 0.0
25/09:30am 24.4 24.4 17.1 63 4.5 S 13 15 7 8 1013.5 1013.4 0.0
25/09:00am 24.3 24.9 16.8 63 4.6 W 9 13 5 7 1012.8 1012.7 5.4
25/08:30am 23.9 24.4 17.4 67 4.0 NNW 11 17 6 9 1012.3 1012.2 5.4
25/08:00am 23.9 25.1 17.4 67 4.0 NW 7 13 4 7 1011.9 1011.8 5.4
25/07:30am 23.9 25.3 17.4 67 4.0 NNE 6 9 3 5 1011.5 1011.4 5.4
25/07:00am 23.5 24.8 17.5 69 3.7 WNW 7 13 4 7 1010.7 1010.6 5.4
25/06:30am 22.1 23.9 19.5 85 1.7 SSW 9 11 5 6 1009.5 1009.4 5.4
25/06:00am 22.1 24.2 19.3 84 1.8 N 7 9 4 5 1009.4 1009.3 5.4
25/05:59am 22.2 24.2 19.2 83 1.9 N 7 11 4 6 1009.4 1009.3 5.4
25/05:30am 22.3 21.5 19.3 83 1.9 NNE 22 28 12 15 1007.4 1007.3 5.4
25/05:00am 22.3 23.1 19.8 86 1.6 NNE 15 19 8 10 1008.5 1008.4 5.4
25/04:30am 22.1 23.3 20.0 88 1.3 NE 13 17 7 9 1008.8 1008.7 5.4
25/04:00am 23.2 22.5 19.4 79 2.4 NNE 22 33 12 18 1008.5 1008.4 5.4
25/03:30am 23.3 22.8 19.2 78 2.6 NNE 20 28 11 15 1008.1 1008.0 5.4
25/03:00am 22.7 23.0 19.7 83 1.9 NE 17 20 9 11 1008.4 1008.3 5.4
25/02:30am 22.8 22.8 19.8 83 1.9 NNE 19 22 10 12 1008.2 1008.1 5.4
25/02:00am 22.8 23.1 20.3 86 1.6 NE 19 20 10 11 1009.1 1009.0 5.2
25/01:30am 23.4 24.3 20.1 82 2.1 NE 15 20 8 11 1009.1 1009.0 5.2
25/01:00am 24.8 25.9 19.6 73 3.4 N 13 19 7 10 1008.8 1008.7 4.8
25/12:30am 24.1 26.3 21.2 84 1.9 NE 11 15 6 8 1009.0 1008.9 4.8
25/12:00am 23.6 26.2 22.0 91 1.1 NNE 11 15 6 8 1009.1 1009.0 4.8
 
Date/Time
EDT
Tmp

°C
App
Tmp
°C
Dew
Point
°C
Rel
Hum
%
Delta-T

°C
Wind Press
QNH
hPa
Press
MSL
hPa
Rain
since
9 am
mm
Dir
 
Spd
km/h
Gust
km/h
Spd
kts
Gust
kts
24/11:30pm 23.5 26.3 22.3 93 0.8 NNE 11 17 6 9 1009.1 1009.0 4.8
24/11:00pm 23.5 27.0 22.1 92 0.9 N 7 9 4 5 1009.5 1009.4 4.8
24/10:30pm 23.6 27.6 22.0 91 1.1 N 4 9 2 5 1009.8 1009.7 4.8
24/10:00pm 23.8 28.5 21.9 89 1.3 CALM 0 9 0 5 1009.2 1009.1 4.8
24/09:30pm 24.0 26.8 21.5 86 1.7 E 9 11 5 6 1008.8 1008.7 4.8
24/09:00pm 23.9 27.2 21.8 88 1.4 SSW 7 9 4 5 1008.6 1008.5 4.8
24/08:30pm 24.0 27.1 21.5 86 1.7 S 7 9 4 5 1008.5 1008.4 4.8
24/08:00pm 24.2 27.2 21.3 84 1.9 WSW 7 9 4 5 1008.5 1008.4 4.8
24/07:30pm 24.4 27.6 21.3 83 2.0 SW 6 9 3 5 1008.2 1008.1 4.8
24/07:00pm 24.6 29.0 21.3 82 2.2 CALM 0 0 0 0 1007.9 1007.8 4.8
24/06:37pm 24.6 27.8 21.3 82 2.2 SSW 6 11 3 6 1007.7 1007.6 4.8
24/06:30pm 24.7 27.4 21.4 82 2.2 SSE 9 11 5 6 1008.0 1007.9 4.8
24/06:21pm 24.7 27.5 21.6 83 2.1 SSE 9 13 5 7 1008.0 1007.9 4.8
24/06:00pm 25.2 28.0 21.5 80 2.5 SE 9 17 5 9 1007.9 1007.8 4.8
24/05:30pm 25.4 28.3 22.5 84 2.0 SSW 11 17 6 9 1007.1 1007.0 4.8
24/05:00pm 24.1 26.6 21.8 87 1.5 SSW 11 15 6 8 1007.1 1007.0 4.8
24/04:30pm 23.7 26.4 20.6 83 2.0 S 7 9 4 5 1007.3 1007.2 4.8
24/04:00pm 23.0 23.8 21.4 91 1.1 E 19 22 10 12 1007.2 1007.1 4.8
24/03:46pm 22.2 24.3 21.0 93 0.8 S 11 17 6 9 1006.6 1006.5 4.8
24/03:30pm 21.6 22.1 20.1 91 1.0 S 17 22 9 12 1007.5 1007.4 4.4
24/03:26pm 21.9 20.0 20.2 90 1.1 WSW 30 50 16 27 1008.0 1007.9 3.6
24/03:20pm 21.8 18.3 18.8 83 1.9 SW 35 50 19 27 1008.2 1008.1 2.6
24/03:16pm 22.3 13.9 17.2 73 3.1 W 57 80 31 43 1008.3 1008.2 0.8
24/03:14pm 25.1 16.7 17.0 60 5.0 W 57 80 31 43 1008.1 1008.0 0.0
24/03:10pm 32.3 28.6 17.0 40 9.7 WNW 32 61 17 33 1008.0 1007.9 0.0
24/03:00pm 33.7 33.6 17.0 37 10.7 ENE 13 17 7 9 1005.6 1005.5 0.0
24/02:30pm 34.7 33.1 16.1 33 11.8 ENE 19 24 10 13 1005.7 1005.6 0.0
24/02:00pm 35.6 35.3 18.2 35 11.4 E 17 28 9 15 1006.7 1006.6 0.0
24/01:30pm 33.3 33.1 17.5 39 10.1 E 15 20 8 11 1008.1 1008.0 0.0
24/01:00pm 32.1 33.1 18.7 45 8.7 E 11 19 6 10 1008.9 1008.8 0.0
24/12:30pm 31.0 32.4 18.7 48 8.0 ENE 9 17 5 9 1009.9 1009.8 0.0
24/12:00pm 29.9 30.9 18.7 51 7.2 NE 11 17 6 9 1010.8 1010.7 0.0
24/11:30am 28.6 30.3 18.4 54 6.5 E 7 17 4 9 1011.7 1011.6 0.0
24/11:00am 27.6 28.7 18.9 59 5.6 SSE 11 17 6 9 1012.6 1012.5 0.0
24/10:30am 26.1 27.6 18.8 64 4.7 SW 9 15 5 8 1013.3 1013.2 0.0
24/10:00am 25.2 26.2 18.6 67 4.2 SSE 11 15 6 8 1013.6 1013.5 0.0
24/09:38am 24.3 26.7 18.7 71 3.6 SSE 4 7 2 4 1014.4 1014.3 0.0
24/09:30am 24.2 26.2 18.8 72 3.4 S 6 9 3 5 1014.6 1014.5 0.0
24/09:00am 23.4 24.9 18.9 76 2.9 SSE 9 13 5 7 1015.0 1014.9 0.0
24/08:30am 22.8 23.9 18.8 78 2.5 SSE 11 15 6 8 1015.2 1015.1 0.0
24/08:00am 22.5 22.9 18.9 80 2.3 ESE 15 19 8 10 1014.9 1014.8 0.0
24/07:30am 22.6 23.9 19.4 82 2.0 ENE 11 15 6 8 1014.3 1014.2 0.0
24/07:04am 22.6 24.4 19.6 83 1.9 NE 9 17 5 9 1014.0 1013.9 0.0
24/07:00am 22.5 24.4 19.7 84 1.8 NE 9 13 5 7 1014.0 1013.9 0.0
24/06:30am 21.7 23.8 19.4 87 1.5 NNW 7 9 4 5 1013.4 1013.3 0.0
24/06:00am 21.6 23.2 19.2 86 1.5 SW 9 11 5 6 1013.0 1012.9 0.0
24/05:30am 21.6 22.5 19.2 86 1.5 E 13 17 7 9 1011.8 1011.7 0.0
24/05:00am 21.5 23.5 19.1 86 1.5 S 7 11 4 6 1011.3 1011.2 0.0
24/04:30am 21.4 23.5 19.0 86 1.5 SE 6 7 3 4 1011.4 1011.3 0.0
24/04:00am 21.3 23.3 19.2 88 1.3 SW 7 11 4 6 1011.5 1011.4 0.0
24/03:30am 21.3 22.8 19.0 87 1.5 S 9 15 5 8 1011.6 1011.5 0.0
24/03:00am 21.2 22.3 18.9 87 1.4 SSW 11 13 6 7 1011.8 1011.7 0.0
24/02:30am 21.2 24.0 18.9 87 1.4 WSW 2 9 1 5 1012.4 1012.3 0.0
24/02:00am 21.8 24.7 19.0 84 1.8 N 2 9 1 5 1012.6 1012.5 0.0
24/01:30am 22.5 24.7 19.1 81 2.2 ENE 6 9 3 5 1012.5 1012.4 0.0
24/01:00am 22.6 24.7 19.4 82 2.0 SW 7 11 4 6 1013.4 1013.3 0.0
24/12:30am 23.1 25.2 19.3 79 2.4 SW 7 11 4 6 1013.3 1013.2 0.0
24/12:00am 23.6 25.2 19.1 76 2.9 SE 9 11 5 6 1013.3 1013.2 0.0
 
Date/Time
EDT
Tmp

°C
App
Tmp
°C
Dew
Point
°C
Rel
Hum
%
Delta-T

°C
Wind Press
QNH
hPa
Press
MSL
hPa
Rain
since
9 am
mm
Dir
 
Spd
km/h
Gust
km/h
Spd
kts
Gust
kts
23/11:30pm 23.8 25.4 19.1 75 3.0 SSW 9 13 5 7 1014.0 1013.9 0.0
23/11:00pm 24.2 26.6 18.8 72 3.4 SSW 4 7 2 4 1014.3 1014.2 0.0
23/10:30pm 24.4 26.4 18.8 71 3.6 S 6 9 3 5 1013.7 1013.6 0.0
23/10:00pm 24.9 26.4 18.8 69 3.9 SE 9 13 5 7 1013.0 1012.9 0.0
23/09:30pm 24.3 26.2 18.5 70 3.7 ENE 6 15 3 8 1013.2 1013.1 0.0
23/09:00pm 25.3 27.1 18.7 67 4.2 SE 7 11 4 6 1012.3 1012.2 0.0
23/08:30pm 25.6 25.6 19.0 67 4.2 SE 17 24 9 13 1012.0 1011.9 0.0
23/08:00pm 26.1 26.1 19.0 65 4.6 SSE 17 24 9 13 1011.6 1011.5 0.0
23/07:30pm 25.3 22.8 19.7 71 3.6 S 32 46 17 25 1009.9 1009.8 0.0
23/07:00pm 27.9 25.3 19.4 60 5.5 S 32 41 17 22 1008.1 1008.0 0.0
23/06:42pm 32.6 30.8 19.5 46 8.6 S 28 43 15 23 1006.8 1006.7 0.0
23/06:30pm 36.7 35.2 16.3 30 13.0 S 19 22 10 12 1006.0 1005.9 0.0
23/06:00pm 37.7 36.1 16.1 28 13.8 E 19 26 10 14 1004.9 1004.8 0.0
23/05:30pm 41.8 38.8 4.0 10 20.6 N 9 19 5 10 1004.8 1004.7 0.0
23/05:00pm 41.8 38.0 4.0 10 20.7 WSW 13 20 7 11 1005.0 1004.9 0.0
23/04:30pm 43.6 36.5 5.3 10 21.5 W 32 41 17 22 1005.1 1005.0 0.0
23/04:00pm 42.8 37.3 6.1 11 20.8 W 24 35 13 19 1005.1 1005.0 0.0
23/03:30pm 43.8 38.2 5.5 10 21.6 W 24 37 13 20 1005.3 1005.2 0.0
23/03:00pm 43.5 37.9 5.2 10 21.5 W 24 37 13 20 1005.7 1005.6 0.0
23/02:30pm 43.6 39.6 6.7 11 21.1 WNW 17 30 9 16 1006.1 1006.0 0.0
23/02:00pm 41.8 37.5 5.3 11 20.4 WNW 17 24 9 13 1006.4 1006.3 0.0
23/01:39pm 44.3 38.3 7.2 11 21.4 WNW 28 44 15 24 1006.6 1006.5 0.0
23/01:30pm 43.2 40.1 8.8 13 20.2 NNW 15 22 8 12 1006.8 1006.7 0.0
23/01:00pm 41.3 38.5 11.3 17 18.2 NE 17 26 9 14 1007.4 1007.3 0.0
23/12:30pm 40.5 40.5 15.3 22 16.0 NE 9 17 5 9 1007.9 1007.8 0.0
23/12:00pm 36.5 36.1 18.1 33 12.0 E 17 24 9 13 1008.7 1008.6 0.0

Latest Capital City Observations: Canberra | Sydney | Melbourne | Brisbane | Adelaide | Perth | Hobart | Darwin

Other Formats:

Comma delimited format used in spreadsheet applications
http://www.bom.gov.au/fwo/IDN60901/IDN60901.95753.axf

JavaScript Object Notation format (JSON) in row-major order
http://www.bom.gov.au/fwo/IDN60901/IDN60901.95753.json